createdAt,value
2023-02-22T05:01:36.347Z,32.86
2023-02-22T05:04:05.183Z,32.69
2023-02-22T05:06:31.897Z,32.71
2023-02-22T05:08:58.573Z,32.67
2023-02-22T05:11:25.741Z,32.82
2023-02-22T05:16:20.827Z,32.80
2023-02-22T05:18:47.398Z,32.80
2023-02-22T05:21:13.969Z,32.94
2023-02-22T05:23:41.408Z,32.57
2023-02-22T05:26:09.990Z,32.73
2023-02-22T05:28:37.762Z,32.83
2023-02-22T05:31:04.441Z,32.95
2023-02-22T05:33:31.016Z,32.75
2023-02-22T05:35:57.619Z,32.73
2023-02-22T05:38:24.171Z,32.79
2023-02-22T05:40:50.915Z,32.75
2023-02-22T05:43:17.573Z,32.85
2023-02-22T05:45:44.093Z,32.68
2023-02-22T05:48:10.621Z,32.88
2023-02-22T05:50:37.131Z,32.77
2023-02-22T05:53:05.511Z,32.69
2023-02-22T05:55:32.052Z,32.75
2023-02-22T05:57:58.640Z,32.66
2023-02-22T06:00:29.763Z,32.55
2023-02-22T06:03:05.577Z,32.63
2023-02-22T06:05:32.543Z,32.55
2023-02-22T06:08:00.877Z,32.56
2023-02-22T06:10:27.762Z,32.42
2023-02-22T06:12:54.471Z,32.77
2023-02-22T06:15:21.508Z,32.46
2023-02-22T06:17:48.229Z,32.55
2023-02-22T06:20:16.119Z,32.56
2023-02-22T06:22:42.882Z,32.52
2023-02-22T06:25:09.490Z,32.78
2023-02-22T06:27:36.452Z,32.55
2023-02-22T06:30:03.181Z,32.81
2023-02-22T06:32:29.772Z,32.45
2023-02-22T06:34:56.760Z,32.74
2023-02-22T06:37:23.368Z,32.42
2023-02-22T06:39:49.949Z,32.62
2023-02-22T06:42:16.608Z,32.36
2023-02-22T06:44:43.189Z,32.57
2023-02-22T06:47:09.778Z,32.42
2023-02-22T06:49:36.400Z,32.51
2023-02-22T06:52:07.494Z,32.55
2023-02-22T06:54:34.086Z,32.52
2023-02-22T06:57:00.635Z,32.36
2023-02-22T06:59:28.003Z,32.48
2023-02-22T07:01:54.627Z,32.61
2023-02-22T07:04:21.455Z,32.71
2023-02-22T07:06:51.948Z,32.42
2023-02-22T07:09:18.650Z,32.57
2023-02-22T07:11:45.208Z,32.54
2023-02-22T07:14:11.801Z,32.58
2023-02-22T07:16:38.447Z,32.52
2023-02-22T07:19:05.047Z,32.47
2023-02-22T07:21:31.668Z,32.44
2023-02-22T07:23:59.019Z,32.61
2023-02-22T07:26:25.890Z,32.65
2023-02-22T07:28:52.488Z,32.66
2023-02-22T07:31:19.080Z,32.64
2023-02-22T07:33:48.859Z,32.54
2023-02-22T07:36:17.841Z,32.67
2023-02-22T07:38:46.218Z,32.51
2023-02-22T07:41:13.090Z,32.37
2023-02-22T07:43:39.678Z,32.33
2023-02-22T07:46:06.406Z,32.37
2023-02-22T07:48:32.971Z,32.57
2023-02-22T07:50:59.624Z,32.34
2023-02-22T07:53:30.610Z,32.56
2023-02-22T07:55:57.970Z,32.53
2023-02-22T07:58:25.868Z,32.43
2023-02-22T08:00:52.434Z,32.38
2023-02-22T08:03:20.759Z,32.42
2023-02-22T08:05:49.159Z,32.57
2023-02-22T08:08:17.756Z,32.35
2023-02-22T08:10:46.114Z,32.42
2023-02-22T08:13:12.789Z,32.50
2023-02-22T08:15:40.316Z,32.43
2023-02-22T08:18:09.225Z,32.43
2023-02-22T08:20:37.878Z,32.65
2023-02-22T08:23:05.338Z,32.74
2023-02-22T08:25:32.018Z,32.47
2023-02-22T08:28:03.115Z,32.51
2023-02-22T08:30:30.892Z,32.47
2023-02-22T08:32:58.205Z,32.57
2023-02-22T08:35:25.017Z,32.36
2023-02-22T08:37:54.917Z,32.58
2023-02-22T08:40:23.212Z,32.69
2023-02-22T08:42:49.862Z,32.43
2023-02-22T08:45:16.800Z,32.56
2023-02-22T08:47:43.395Z,32.55
2023-02-22T08:50:10.484Z,32.23
2023-02-22T08:52:37.071Z,32.41
2023-02-22T08:55:03.777Z,32.59
2023-02-22T08:57:31.790Z,32.38
2023-02-22T08:59:58.429Z,32.20
2023-02-22T09:02:25.171Z,32.48
2023-02-22T09:04:51.811Z,32.20
2023-02-22T09:07:18.397Z,32.29
2023-02-22T09:09:45.033Z,32.30
2023-02-22T09:12:11.583Z,32.28
2023-02-22T09:14:38.269Z,32.15
2023-02-22T09:17:05.953Z,32.05
2023-02-22T09:19:32.662Z,32.25
2023-02-22T09:22:02.110Z,32.33
2023-02-22T09:24:28.771Z,32.34
2023-02-22T09:26:55.357Z,32.36
2023-02-22T09:29:22.887Z,32.19
2023-02-22T09:31:50.488Z,32.35
2023-02-22T09:34:17.427Z,32.10
2023-02-22T09:36:44.127Z,32.33
2023-02-22T09:39:11.374Z,32.35
2023-02-22T09:42:17.620Z,32.13
2023-02-22T09:45:06.167Z,32.11
2023-02-22T09:47:38.826Z,32.47
2023-02-22T09:50:15.954Z,32.55
2023-02-22T09:53:00.694Z,32.14
2023-02-22T09:55:50.300Z,32.32
2023-02-22T09:58:35.563Z,32.26
2023-02-22T10:01:22.941Z,32.33
2023-02-22T10:03:58.191Z,32.62
2023-02-22T10:06:24.947Z,32.65
2023-02-22T10:08:56.331Z,32.70
2023-02-22T10:11:54.730Z,32.67
2023-02-22T10:14:48.914Z,32.47
2023-02-22T10:17:39.409Z,32.37
2023-02-22T10:20:22.492Z,32.39
2023-02-22T10:23:09.758Z,32.44
2023-02-22T10:25:36.729Z,32.50
2023-02-22T10:28:35.187Z,32.47
2023-02-22T10:31:07.645Z,32.32
2023-02-22T10:33:40.172Z,32.37
2023-02-22T10:36:09.030Z,32.67
2023-02-22T10:38:35.817Z,32.30
2023-02-22T10:41:09.820Z,32.26
2023-02-22T10:43:40.893Z,32.39
2023-02-22T10:46:08.391Z,32.17
2023-02-22T10:48:37.620Z,32.32
2023-02-22T10:51:05.514Z,32.31
2023-02-22T10:53:32.696Z,32.35
2023-02-22T10:56:09.951Z,32.20
2023-02-22T10:58:50.253Z,32.15
2023-02-22T11:01:27.549Z,32.13
2023-02-22T11:03:58.891Z,32.05
2023-02-22T11:06:25.585Z,32.02
2023-02-22T11:08:52.366Z,32.19
2023-02-22T11:11:28.908Z,32.19
2023-02-22T11:13:56.302Z,32.18
2023-02-22T11:16:43.530Z,31.85
2023-02-22T11:19:18.781Z,31.96
2023-02-22T11:21:51.723Z,31.99
2023-02-22T11:24:19.982Z,31.79
2023-02-22T11:26:59.219Z,31.77
2023-02-22T11:29:26.861Z,31.95
2023-02-22T11:31:54.161Z,31.65
2023-02-22T11:34:33.464Z,31.86
2023-02-22T11:37:16.532Z,32.04
2023-02-22T11:39:44.892Z,31.84
2023-02-22T11:42:24.653Z,31.70
2023-02-22T11:45:10.278Z,31.63
2023-02-22T11:47:50.152Z,31.73
2023-02-22T11:50:28.239Z,31.49
2023-02-22T11:53:13.947Z,31.43
2023-02-22T11:55:52.410Z,31.58
2023-02-22T11:58:34.865Z,31.61
2023-02-22T12:01:25.510Z,31.39
2023-02-22T12:04:30.018Z,31.46
2023-02-22T12:07:38.322Z,31.48
2023-02-22T12:10:18.505Z,31.32
2023-02-22T12:13:06.590Z,31.47
2023-02-22T12:15:56.902Z,31.33
2023-02-22T12:18:33.924Z,31.27
2023-02-22T12:21:02.013Z,31.34
2023-02-22T12:23:45.092Z,31.25
2023-02-22T12:26:20.629Z,31.30
2023-02-22T12:29:19.753Z,31.23
2023-02-22T12:31:50.250Z,31.17
2023-02-22T12:34:49.587Z,31.17
2023-02-22T12:37:27.996Z,31.16
2023-02-22T12:40:13.737Z,31.16
2023-02-22T12:42:51.886Z,31.12
2023-02-22T12:45:40.005Z,31.04
2023-02-22T12:48:25.535Z,31.10
2023-02-22T12:50:58.669Z,31.13
2023-02-22T12:53:31.475Z,31.01
2023-02-22T12:56:21.743Z,30.97
2023-02-22T12:59:02.960Z,31.01
2023-02-22T13:01:41.468Z,30.85
2023-02-22T13:04:20.090Z,30.96
2023-02-22T13:06:51.474Z,30.89
2023-02-22T13:09:43.853Z,31.04
2023-02-22T13:12:21.558Z,30.88
2023-02-22T13:14:59.116Z,31.01
2023-02-22T13:17:40.932Z,31.04
2023-02-22T13:20:10.453Z,30.94
2023-02-22T13:22:55.557Z,31.01
2023-02-22T13:25:28.138Z,30.99
2023-02-22T13:27:57.206Z,31.05
2023-02-22T13:30:29.907Z,30.91
2023-02-22T13:33:34.326Z,30.95
2023-02-22T13:36:40.991Z,30.99
2023-02-22T13:39:32.229Z,30.86
2023-02-22T13:42:20.251Z,30.90
2023-02-22T13:45:09.012Z,31.06
2023-02-22T13:47:45.108Z,31.01
2023-02-22T13:50:49.139Z,30.98
2023-02-22T13:53:19.807Z,31.04
2023-02-22T13:55:49.570Z,31.02
2023-02-22T13:58:16.434Z,31.07
2023-02-22T14:00:46.442Z,31.13
2023-02-22T14:03:13.197Z,31.07
2023-02-22T14:05:41.786Z,31.04
2023-02-22T14:08:17.836Z,31.05
2023-02-22T14:10:47.847Z,30.96
2023-02-22T14:13:19.369Z,30.87
2023-02-22T14:15:57.954Z,30.95
2023-02-22T14:18:29.001Z,31.00
2023-02-22T14:21:07.812Z,30.99
2023-02-22T14:23:37.158Z,31.04
2023-02-22T14:26:31.356Z,30.99
2023-02-22T14:29:00.003Z,31.18
2023-02-22T14:31:36.553Z,30.80
2023-02-22T14:34:14.256Z,31.21
2023-02-22T14:37:02.395Z,31.00
2023-02-22T14:39:51.205Z,30.89
2023-02-22T14:42:38.193Z,30.99
2023-02-22T14:45:17.578Z,30.96
2023-02-22T14:48:01.449Z,31.14
2023-02-22T14:50:41.828Z,31.00
2023-02-22T14:53:47.085Z,30.93
2023-02-22T14:56:25.349Z,31.16
2023-02-22T14:58:55.811Z,31.08
2023-02-22T15:01:31.178Z,31.23
2023-02-22T15:04:20.080Z,30.90
2023-02-22T15:06:49.975Z,31.01
2023-02-22T15:09:34.659Z,30.99
2023-02-22T15:12:07.620Z,31.16
2023-02-22T15:14:38.015Z,31.14
2023-02-22T15:17:19.672Z,30.88
2023-02-22T15:19:49.023Z,31.15
2023-02-22T15:22:24.675Z,31.18
2023-02-22T15:25:24.309Z,31.39
2023-02-22T15:27:53.004Z,30.88
2023-02-22T15:30:20.208Z,31.13
2023-02-22T15:33:02.622Z,30.98
2023-02-22T15:35:31.718Z,31.26
2023-02-22T15:38:06.799Z,31.24
2023-02-22T15:40:34.172Z,31.20
2023-02-22T15:43:02.539Z,31.38
2023-02-22T15:45:29.894Z,31.37
2023-02-22T15:47:58.727Z,31.39
2023-02-22T15:50:33.390Z,31.39
2023-02-22T15:53:04.820Z,31.56
2023-02-22T15:55:36.590Z,31.37
2023-02-22T15:58:18.518Z,31.38
2023-02-22T16:00:47.709Z,31.37
2023-02-22T16:03:16.687Z,31.56
2023-02-22T16:05:51.479Z,31.70
2023-02-22T16:08:26.135Z,31.46
2023-02-22T16:11:13.054Z,31.39
2023-02-22T16:13:43.270Z,31.48
2023-02-22T16:16:21.793Z,31.66
2023-02-22T16:18:49.380Z,31.62
2023-02-22T16:21:18.214Z,31.50
2023-02-22T16:24:15.447Z,31.55
2023-02-22T16:27:01.699Z,31.55
2023-02-22T16:29:28.647Z,31.71
2023-02-22T16:31:55.613Z,31.63
2023-02-22T16:34:22.500Z,31.59
2023-02-22T16:36:51.631Z,31.43
2023-02-22T16:39:28.217Z,31.73
2023-02-22T16:41:56.300Z,31.75
2023-02-22T16:44:25.216Z,31.78
2023-02-22T16:47:04.944Z,31.68
2023-02-22T16:49:33.559Z,31.74
2023-02-22T16:52:03.111Z,31.71
2023-02-22T16:54:42.113Z,31.68
2023-02-22T16:57:15.738Z,31.71
2023-02-22T16:59:42.616Z,31.83
2023-02-22T17:02:15.820Z,31.77
2023-02-22T17:04:49.750Z,31.72
2023-02-22T17:07:18.227Z,31.76
2023-02-22T17:09:45.200Z,31.73
2023-02-22T17:12:12.046Z,31.77
2023-02-22T17:14:41.228Z,31.91
2023-02-22T17:17:10.364Z,31.84
2023-02-22T17:19:37.737Z,31.86
2023-02-22T17:22:06.141Z,31.91
2023-02-22T17:24:34.035Z,31.77
2023-02-22T17:27:03.956Z,31.86
2023-02-22T17:29:30.575Z,31.88
2023-02-22T17:31:57.358Z,31.84
2023-02-22T17:34:24.066Z,31.90
2023-02-22T17:36:50.692Z,32.02
2023-02-22T17:39:17.272Z,31.93
2023-02-22T17:41:44.027Z,32.03
2023-02-22T17:44:11.583Z,32.05
2023-02-22T17:46:40.799Z,31.85
2023-02-22T17:49:07.532Z,31.90
2023-02-22T17:51:34.212Z,31.81
2023-02-22T17:54:00.904Z,31.91
2023-02-22T17:56:27.596Z,32.06
2023-02-22T17:58:54.539Z,32.02
2023-02-22T18:01:27.146Z,32.02
2023-02-22T18:03:54.409Z,31.94
2023-02-22T18:06:24.972Z,31.87
2023-02-22T18:08:56.592Z,32.13
2023-02-22T18:11:26.511Z,32.20
2023-02-22T18:13:56.918Z,32.14
2023-02-22T18:16:25.693Z,32.33
2023-02-22T18:18:53.092Z,32.17
2023-02-22T18:21:19.985Z,32.18
2023-02-22T18:23:46.660Z,32.21
2023-02-22T18:26:15.779Z,32.21
2023-02-22T18:28:42.428Z,32.12
2023-02-22T18:31:11.584Z,32.22
2023-02-22T18:33:38.792Z,32.11
2023-02-22T18:36:09.090Z,32.12
2023-02-22T18:38:35.809Z,32.06
2023-02-22T18:41:04.589Z,32.21
2023-02-22T18:43:31.886Z,32.15
2023-02-22T18:46:32.118Z,32.24
2023-02-22T18:48:59.078Z,32.32
2023-02-22T18:51:26.432Z,32.32
2023-02-22T18:53:57.589Z,32.26
2023-02-22T18:56:35.245Z,32.16
2023-02-22T18:59:02.802Z,32.17
2023-02-22T19:01:30.435Z,32.06
2023-02-22T19:03:57.508Z,32.29
2023-02-22T19:06:24.524Z,32.39
2023-02-22T19:08:51.492Z,32.38
2023-02-22T19:11:23.261Z,32.47
2023-02-22T19:13:51.700Z,32.30
2023-02-22T19:16:20.255Z,32.07
2023-02-22T19:18:47.811Z,32.34
2023-02-22T19:21:14.636Z,32.30
2023-02-22T19:23:48.876Z,32.41
2023-02-22T19:26:18.766Z,32.19
2023-02-22T19:28:46.187Z,32.33
2023-02-22T19:31:16.936Z,32.27
2023-02-22T19:33:44.294Z,32.22
2023-02-22T19:36:11.541Z,32.35
2023-02-22T19:38:38.384Z,32.35
2023-02-22T19:41:10.258Z,32.36
2023-02-22T19:43:37.716Z,32.32
2023-02-22T19:46:11.487Z,32.37
2023-02-22T19:48:39.161Z,32.30
2023-02-22T19:51:06.805Z,32.29
2023-02-22T19:53:34.273Z,32.09
2023-02-22T19:56:00.905Z,32.68
2023-02-22T19:58:28.007Z,32.33
2023-02-22T20:00:54.779Z,32.24
2023-02-22T20:03:24.752Z,32.19
2023-02-22T20:05:51.556Z,32.29
2023-02-22T20:08:18.330Z,32.42
2023-02-22T20:10:46.483Z,32.31
2023-02-22T20:13:13.300Z,32.16
2023-02-22T20:15:40.064Z,32.59
2023-02-22T20:18:06.907Z,32.25
2023-02-22T20:20:33.696Z,32.19
2023-02-22T20:23:00.463Z,32.26
2023-02-22T20:25:27.135Z,32.36
2023-02-22T20:27:55.351Z,32.46
2023-02-22T20:30:23.037Z,32.46
2023-02-22T20:32:49.955Z,32.53
2023-02-22T20:35:16.956Z,32.46
2023-02-22T20:37:43.843Z,32.50
2023-02-22T20:40:10.757Z,32.35
2023-02-22T20:42:37.768Z,32.27
2023-02-22T20:45:06.077Z,32.44
2023-02-22T20:47:32.802Z,32.51
2023-02-22T20:49:59.624Z,32.30
2023-02-22T20:52:26.285Z,32.30
2023-02-22T20:54:53.029Z,32.38
2023-02-22T20:57:19.824Z,32.51
2023-02-22T20:59:47.653Z,32.50
2023-02-22T21:02:14.357Z,32.56
2023-02-22T21:04:41.081Z,32.57
2023-02-22T21:07:07.744Z,32.52
2023-02-22T21:09:34.404Z,32.33
2023-02-22T21:12:01.062Z,32.33
2023-02-22T21:14:28.376Z,32.31
2023-02-22T21:16:55.110Z,32.63
2023-02-22T21:19:27.534Z,32.51
2023-02-22T21:21:57.923Z,32.40
2023-02-22T21:24:25.330Z,32.32
2023-02-22T21:26:52.172Z,32.26
2023-02-22T21:29:18.952Z,32.39
2023-02-22T21:31:45.724Z,32.60
2023-02-22T21:34:13.239Z,32.59
2023-02-22T21:36:39.847Z,32.54
2023-02-22T21:39:17.863Z,32.54
2023-02-22T21:41:48.725Z,32.50
2023-02-22T21:44:15.654Z,32.44
2023-02-22T21:46:42.360Z,32.36
2023-02-22T21:49:09.097Z,32.41
2023-02-22T21:51:37.629Z,32.40
2023-02-22T21:54:06.054Z,32.50
2023-02-22T21:56:35.235Z,32.63
2023-02-22T21:59:11.644Z,32.33
2023-02-22T22:01:50.119Z,32.44
2023-02-22T22:04:21.577Z,32.60
2023-02-22T22:06:50.832Z,32.51
2023-02-22T22:09:21.880Z,32.50
2023-02-22T22:11:53.799Z,32.43
2023-02-22T22:14:23.920Z,32.35
2023-02-22T22:16:52.423Z,32.61
2023-02-22T22:19:19.155Z,32.41
2023-02-22T22:21:50.333Z,32.58
2023-02-22T22:24:18.185Z,32.49
2023-02-22T22:26:45.014Z,32.56
2023-02-22T22:29:11.911Z,32.45
